createdAt,value
2018-07-26T00:00:24.129Z,6.57
2018-07-26T00:02:52.649Z,8.60
2018-07-26T00:05:21.143Z,7.60
2018-07-26T00:07:49.661Z,8.03
2018-07-26T00:10:17.864Z,8.83
2018-07-26T00:12:46.411Z,7.63
2018-07-26T00:15:14.935Z,6.53
2018-07-26T00:17:43.414Z,6.63
2018-07-26T00:20:12.146Z,6.80
2018-07-26T00:22:40.692Z,6.13
2018-07-26T00:25:09.216Z,6.80
2018-07-26T00:27:37.498Z,7.83
2018-07-26T00:30:06.021Z,6.43
2018-07-26T00:32:34.538Z,6.73
2018-07-26T00:35:03.054Z,6.73
2018-07-26T00:37:31.244Z,6.67
2018-07-26T00:39:59.799Z,6.70
2018-07-26T00:42:28.076Z,7.30
2018-07-26T00:44:56.586Z,6.87
2018-07-26T00:47:25.060Z,10.27
2018-07-26T00:49:54.179Z,7.60
2018-07-26T00:52:22.683Z,8.47
2018-07-26T00:54:51.304Z,11.23
2018-07-26T00:57:19.552Z,6.30
2018-07-26T00:59:48.023Z,6.70
2018-07-26T01:02:16.530Z,8.50
2018-07-26T01:04:45.020Z,6.87
2018-07-26T01:07:13.257Z,6.80
2018-07-26T01:09:41.810Z,6.37
2018-07-26T01:12:10.338Z,6.40
2018-07-26T01:14:38.990Z,7.47
2018-07-26T01:17:07.554Z,6.33
2018-07-26T01:19:36.046Z,6.30
2018-07-26T01:22:04.629Z,8.67
2018-07-26T01:24:33.179Z,7.67
2018-07-26T01:27:02.450Z,6.23
2018-07-26T01:29:30.947Z,6.47
2018-07-26T01:31:59.499Z,6.53
2018-07-26T01:34:27.957Z,8.17
2018-07-26T01:36:56.467Z,10.70
2018-07-26T01:39:24.958Z,8.60
2018-07-26T01:41:53.463Z,8.57
2018-07-26T01:44:23.437Z,9.50
2018-07-26T01:46:51.951Z,7.03
2018-07-26T01:49:20.559Z,6.60
2018-07-26T01:51:49.098Z,7.97
2018-07-26T01:54:17.759Z,11.33
2018-07-26T01:56:46.286Z,7.57
2018-07-26T01:59:14.523Z,8.60
2018-07-26T02:01:43.030Z,9.53
2018-07-26T02:04:12.036Z,9.43
2018-07-26T02:06:40.518Z,8.63
2018-07-26T02:09:10.398Z,7.53
2018-07-26T02:11:39.039Z,7.03
2018-07-26T02:14:11.823Z,9.20
2018-07-26T02:16:40.811Z,6.70
2018-07-26T02:19:09.802Z,8.50
2018-07-26T02:21:38.370Z,7.27
2018-07-26T02:24:06.599Z,7.03
2018-07-26T02:26:35.122Z,8.43
2018-07-26T02:29:03.703Z,10.37
2018-07-26T02:31:31.973Z,9.03
2018-07-26T02:34:00.463Z,8.57
2018-07-26T02:36:28.706Z,8.57
2018-07-26T02:38:57.263Z,11.77
2018-07-26T02:41:25.810Z,8.77
2018-07-26T02:43:54.042Z,8.30
2018-07-26T02:46:22.545Z,9.20
2018-07-26T02:48:51.947Z,8.97
2018-07-26T02:51:21.455Z,9.17
2018-07-26T02:53:50.623Z,10.13
2018-07-26T02:56:19.667Z,9.10
2018-07-26T02:58:47.898Z,9.03
2018-07-26T03:01:16.395Z,7.60
2018-07-26T03:03:44.925Z,8.57
2018-07-26T03:06:13.433Z,7.57
2018-07-26T03:08:41.986Z,8.90
2018-07-26T03:11:10.485Z,7.33
2018-07-26T03:13:38.999Z,8.60
2018-07-26T03:16:07.508Z,12.97
2018-07-26T03:18:35.758Z,9.10
2018-07-26T03:21:04.381Z,7.67
2018-07-26T03:23:32.875Z,9.07
2018-07-26T03:26:01.391Z,7.87
2018-07-26T03:28:29.898Z,7.47
2018-07-26T03:30:58.403Z,8.83
2018-07-26T03:33:26.929Z,10.57
2018-07-26T03:35:55.467Z,8.10
2018-07-26T03:38:23.988Z,9.43
2018-07-26T03:40:52.534Z,8.03
2018-07-26T03:43:21.842Z,8.73
2018-07-26T03:45:50.975Z,8.70
2018-07-26T03:48:19.887Z,9.03
2018-07-26T03:50:48.449Z,10.20
2018-07-26T03:53:16.978Z,9.97
2018-07-26T03:55:45.625Z,8.57
2018-07-26T03:58:14.127Z,7.27
2018-07-26T04:00:42.621Z,12.27
2018-07-26T04:03:10.858Z,10.60
2018-07-26T04:05:39.125Z,10.13
2018-07-26T04:08:07.638Z,7.93
2018-07-26T04:10:36.150Z,11.83
2018-07-26T04:13:04.690Z,9.27
2018-07-26T04:15:33.191Z,10.77
2018-07-26T04:18:04.999Z,8.77
2018-07-26T04:20:33.874Z,10.90
2018-07-26T04:23:02.466Z,16.23
2018-07-26T04:25:31.484Z,14.03
2018-07-26T04:28:00.156Z,17.07
2018-07-26T04:30:28.679Z,13.63
2018-07-26T04:32:57.203Z,16.40
2018-07-26T04:35:25.717Z,18.50
2018-07-26T04:37:54.428Z,14.67
2018-07-26T04:40:23.035Z,17.50
2018-07-26T04:42:52.232Z,16.77
2018-07-26T04:45:21.293Z,21.10
2018-07-26T04:47:50.266Z,15.47
2018-07-26T04:50:18.845Z,21.10
2018-07-26T04:52:47.486Z,14.37
2018-07-26T04:55:16.051Z,25.57
2018-07-26T04:57:44.631Z,13.10
2018-07-26T05:00:13.188Z,14.47
2018-07-26T05:02:41.724Z,16.17
2018-07-26T05:05:10.284Z,20.13
2018-07-26T05:07:38.515Z,13.27
2018-07-26T05:10:07.092Z,18.40
2018-07-26T05:12:35.615Z,16.50
2018-07-26T05:15:04.957Z,9.67
2018-07-26T05:17:33.483Z,12.60
2018-07-26T05:20:03.112Z,7.60
2018-07-26T05:22:31.473Z,10.63
2018-07-26T05:25:00.172Z,8.33
2018-07-26T05:27:28.511Z,8.83
2018-07-26T05:29:57.095Z,8.43
2018-07-26T05:32:27.414Z,10.77
2018-07-26T05:34:57.179Z,9.67
2018-07-26T05:37:25.810Z,6.53
2018-07-26T05:39:55.376Z,7.40
2018-07-26T05:42:24.721Z,7.20
2018-07-26T05:44:57.863Z,6.83
2018-07-26T05:47:26.741Z,6.57
2018-07-26T05:49:55.327Z,9.40
2018-07-26T05:52:24.105Z,9.37
2018-07-26T05:54:53.682Z,7.37
2018-07-26T05:57:23.228Z,7.33
2018-07-26T05:59:52.251Z,6.77
2018-07-26T06:02:22.909Z,6.80
2018-07-26T06:04:51.592Z,7.73
2018-07-26T06:07:22.267Z,6.70
2018-07-26T06:09:52.492Z,8.47
2018-07-26T06:12:21.523Z,7.23
2018-07-26T06:14:50.646Z,7.97
2018-07-26T06:17:19.159Z,7.80
2018-07-26T06:19:47.718Z,7.92
2018-07-26T06:22:16.275Z,7.03
2018-07-26T06:24:44.832Z,8.63
2018-07-26T06:27:13.390Z,6.60
2018-07-26T06:29:41.625Z,7.50
2018-07-26T06:32:10.216Z,8.43
2018-07-26T06:34:38.786Z,7.72
2018-07-26T06:37:07.485Z,11.88
2018-07-26T06:39:36.035Z,7.60
2018-07-26T06:42:04.670Z,8.03
2018-07-26T06:44:33.189Z,7.08
2018-07-26T06:47:01.770Z,6.85
2018-07-26T06:49:30.354Z,7.00
2018-07-26T06:51:58.925Z,8.90
2018-07-26T06:54:27.162Z,6.65
2018-07-26T06:56:55.711Z,7.10
2018-07-26T06:59:24.215Z,6.80
2018-07-26T07:01:53.403Z,9.85
2018-07-26T07:04:23.630Z,6.83
2018-07-26T07:06:52.310Z,8.25
2018-07-26T07:09:21.610Z,9.50
2018-07-26T07:11:50.557Z,10.32
2018-07-26T07:14:18.821Z,7.53
2018-07-26T07:16:47.370Z,7.80
2018-07-26T07:19:15.943Z,8.28
2018-07-26T07:21:44.527Z,6.90
2018-07-26T07:24:17.734Z,9.00
2018-07-26T07:26:46.266Z,7.12
2018-07-26T07:29:14.829Z,11.55
2018-07-26T07:31:43.334Z,7.85
2018-07-26T07:34:11.624Z,8.68
2018-07-26T07:36:40.134Z,8.48
2018-07-26T07:39:10.779Z,7.20
2018-07-26T07:41:39.373Z,7.00
2018-07-26T07:44:08.647Z,6.10
2018-07-26T07:46:37.571Z,11.45
2018-07-26T07:49:05.854Z,7.25
2018-07-26T07:51:34.523Z,6.55
2018-07-26T07:54:03.170Z,9.70
2018-07-26T07:56:32.088Z,6.90
2018-07-26T07:59:00.644Z,31.73
2018-07-26T08:01:29.221Z,9.95
2018-07-26T08:03:57.984Z,7.05
2018-07-26T08:06:26.554Z,10.93
2018-07-26T08:08:54.788Z,7.85
2018-07-26T08:11:23.349Z,8.13
2018-07-26T08:13:52.507Z,8.13
2018-07-26T08:16:21.610Z,7.00
2018-07-26T08:18:50.765Z,12.43
2018-07-26T08:21:19.336Z,6.90
2018-07-26T08:23:47.998Z,6.92
2018-07-26T08:26:16.543Z,8.48
2018-07-26T08:28:45.082Z,8.50
2018-07-26T08:31:14.447Z,7.22
2018-07-26T08:33:42.709Z,11.60
2018-07-26T08:36:11.279Z,9.83
2018-07-26T08:38:39.928Z,7.10
2018-07-26T08:41:08.585Z,7.47
2018-07-26T08:43:36.840Z,8.38
2018-07-26T08:46:05.275Z,9.50
2018-07-26T08:48:33.859Z,6.20
2018-07-26T08:51:02.422Z,8.30
2018-07-26T08:53:31.077Z,6.10
2018-07-26T08:55:59.359Z,8.55
2018-07-26T08:58:27.872Z,7.20
2018-07-26T09:00:57.739Z,6.45
2018-07-26T09:03:25.961Z,7.08
2018-07-26T09:05:54.498Z,7.12
2018-07-26T09:08:22.749Z,6.10
2018-07-26T09:10:53.497Z,5.60
2018-07-26T09:13:23.338Z,13.18
2018-07-26T09:15:52.235Z,7.15
2018-07-26T09:18:21.732Z,8.50
2018-07-26T09:20:50.970Z,5.55
2018-07-26T09:23:19.748Z,5.00
2018-07-26T09:25:48.330Z,4.95
2018-07-26T09:28:16.870Z,7.45
2018-07-26T09:30:45.134Z,6.20
2018-07-26T09:33:13.765Z,6.85
2018-07-26T09:35:42.375Z,5.67
2018-07-26T09:38:11.012Z,4.72
2018-07-26T09:40:39.589Z,8.23
2018-07-26T09:43:07.849Z,7.53
2018-07-26T09:45:36.408Z,6.08
2018-07-26T09:48:04.984Z,5.10
2018-07-26T09:50:33.550Z,6.33
2018-07-26T09:53:02.228Z,6.17
2018-07-26T09:55:30.783Z,5.10
2018-07-26T09:57:59.331Z,5.35
2018-07-26T10:00:33.319Z,4.95
2018-07-26T10:03:01.948Z,5.53
2018-07-26T10:05:30.187Z,7.87
2018-07-26T10:07:59.080Z,4.85
2018-07-26T10:10:27.622Z,6.12
2018-07-26T10:12:56.183Z,5.28
2018-07-26T10:15:24.459Z,6.53
2018-07-26T10:17:52.704Z,5.30
2018-07-26T10:20:21.781Z,4.87
2018-07-26T10:22:51.132Z,4.78
2018-07-26T10:25:19.824Z,6.75
2018-07-26T10:27:49.262Z,5.22
2018-07-26T10:30:17.944Z,5.95
2018-07-26T10:32:46.591Z,4.03
2018-07-26T10:35:14.898Z,4.12
2018-07-26T10:37:43.586Z,4.37
2018-07-26T10:40:13.204Z,4.58
2018-07-26T10:42:45.340Z,6.33
2018-07-26T10:45:15.024Z,7.22
2018-07-26T10:47:43.694Z,5.33
2018-07-26T10:50:12.410Z,4.47
2018-07-26T10:52:41.093Z,4.90
2018-07-26T10:55:10.795Z,5.35
2018-07-26T10:57:39.351Z,6.05
2018-07-26T11:00:09.232Z,12.28
2018-07-26T11:02:39.522Z,5.62
2018-07-26T11:05:10.164Z,6.25
2018-07-26T11:07:40.000Z,5.33
2018-07-26T11:10:10.358Z,4.83
2018-07-26T11:12:39.023Z,4.85
2018-07-26T11:15:19.338Z,4.72
2018-07-26T11:17:48.124Z,4.72
2018-07-26T11:20:16.695Z,5.95
2018-07-26T11:22:44.981Z,4.53
2018-07-26T11:25:13.597Z,4.87
2018-07-26T11:27:42.200Z,6.05
2018-07-26T11:30:10.841Z,4.78
2018-07-26T11:32:39.423Z,7.37
2018-07-26T11:35:07.974Z,5.33
2018-07-26T11:37:36.689Z,6.75
2018-07-26T11:40:05.001Z,4.20
2018-07-26T11:42:33.794Z,6.60
2018-07-26T11:45:02.493Z,5.17
2018-07-26T11:47:31.293Z,5.60
2018-07-26T11:50:00.126Z,6.40
2018-07-26T11:52:28.801Z,4.22
2018-07-26T11:54:57.140Z,4.72
2018-07-26T11:57:25.859Z,5.15
2018-07-26T11:59:54.196Z,4.65
2018-07-26T12:02:23.467Z,5.08
2018-07-26T12:04:52.888Z,5.28
2018-07-26T12:07:22.106Z,4.75
2018-07-26T12:09:51.709Z,4.85
2018-07-26T12:12:20.951Z,4.78
2018-07-26T12:14:49.588Z,5.17
2018-07-26T12:17:19.815Z,5.37
2018-07-26T12:19:48.546Z,6.50
2018-07-26T12:22:17.107Z,5.70
2018-07-26T12:24:45.783Z,5.15
2018-07-26T12:27:14.447Z,4.72
2018-07-26T12:29:44.160Z,5.12
2018-07-26T12:32:12.889Z,5.60
2018-07-26T12:34:41.223Z,6.62
2018-07-26T12:37:09.895Z,5.20
2018-07-26T12:39:38.526Z,5.22
2018-07-26T12:42:07.411Z,5.30
2018-07-26T12:44:36.019Z,5.20
2018-07-26T12:47:04.924Z,6.47
2018-07-26T12:49:34.371Z,10.50
2018-07-26T12:52:03.046Z,5.67
2018-07-26T12:54:31.676Z,4.72
2018-07-26T12:57:00.096Z,5.15
2018-07-26T12:59:28.729Z,5.17
2018-07-26T13:01:57.415Z,5.33
2018-07-26T13:04:26.067Z,4.75
2018-07-26T13:06:54.708Z,5.47
2018-07-26T13:09:23.453Z,4.85
2018-07-26T13:12:05.141Z,5.08
2018-07-26T13:14:34.309Z,4.97
2018-07-26T13:17:03.743Z,4.58
2018-07-26T13:19:32.377Z,4.83
2018-07-26T13:22:01.067Z,5.97
2018-07-26T13:24:29.403Z,5.05
2018-07-26T13:26:58.291Z,6.55
2018-07-26T13:29:26.675Z,4.70
2018-07-26T13:31:55.639Z,4.58
2018-07-26T13:34:24.331Z,4.65
2018-07-26T13:36:53.487Z,4.33
2018-07-26T13:39:22.855Z,7.58
2018-07-26T13:41:52.182Z,4.15
2018-07-26T13:44:21.581Z,3.92
2018-07-26T13:46:50.592Z,4.15
2018-07-26T13:49:20.340Z,4.12
2018-07-26T13:51:50.603Z,4.33
2018-07-26T13:54:20.594Z,4.72
2018-07-26T13:56:50.787Z,4.00
2018-07-26T13:59:19.496Z,3.55
2018-07-26T14:01:48.359Z,3.80
2018-07-26T14:04:17.731Z,4.70
2018-07-26T14:06:47.276Z,5.62
2018-07-26T14:09:15.913Z,3.75
2018-07-26T14:11:44.624Z,4.60
2018-07-26T14:14:13.390Z,5.03
2018-07-26T14:16:42.802Z,4.22
2018-07-26T14:19:11.950Z,3.83
2018-07-26T14:21:40.573Z,4.30
2018-07-26T14:24:14.678Z,4.00
2018-07-26T14:26:43.366Z,4.17
2018-07-26T14:29:12.019Z,5.47
2018-07-26T14:31:40.640Z,5.80
2018-07-26T14:34:09.261Z,4.58
2018-07-26T14:36:37.840Z,4.22
2018-07-26T14:39:08.652Z,4.37
2018-07-26T14:41:37.587Z,4.42
2018-07-26T14:44:06.257Z,7.45
2018-07-26T14:46:34.796Z,4.47
2018-07-26T14:49:03.440Z,4.72
2018-07-26T14:51:32.423Z,3.90
2018-07-26T14:54:01.043Z,6.15
2018-07-26T14:56:29.787Z,4.70
2018-07-26T14:58:58.710Z,5.08
2018-07-26T15:01:27.324Z,5.55
2018-07-26T15:03:55.949Z,5.45
2018-07-26T15:06:24.516Z,5.15
2018-07-26T15:08:53.836Z,4.28
2018-07-26T15:11:23.452Z,4.00
2018-07-26T15:13:52.686Z,4.58
2018-07-26T15:16:21.681Z,4.08
2018-07-26T15:18:50.656Z,4.28
2018-07-26T15:21:19.284Z,4.92
2018-07-26T15:23:47.947Z,4.05
2018-07-26T15:26:16.893Z,3.85
2018-07-26T15:28:45.633Z,4.45
2018-07-26T15:31:16.889Z,4.40
2018-07-26T15:33:42.930Z,4.60
2018-07-26T15:36:11.559Z,5.33
2018-07-26T15:38:39.871Z,4.58
2018-07-26T15:41:08.490Z,4.17
2018-07-26T15:43:37.176Z,4.03
2018-07-26T15:46:06.209Z,3.92
2018-07-26T15:48:35.119Z,4.60
2018-07-26T15:51:04.230Z,3.70
2018-07-26T15:53:33.494Z,5.15
2018-07-26T15:56:02.957Z,3.58
2018-07-26T15:58:31.796Z,7.97
2018-07-26T16:01:00.588Z,4.70
2018-07-26T16:03:29.187Z,6.55
2018-07-26T16:05:58.160Z,4.25
2018-07-26T16:08:27.965Z,4.58
2018-07-26T16:10:56.673Z,4.45
2018-07-26T16:13:25.287Z,4.45
2018-07-26T16:15:53.919Z,4.67
2018-07-26T16:18:22.723Z,6.33
2018-07-26T16:20:52.655Z,4.10
2018-07-26T16:23:22.237Z,5.12
2018-07-26T16:25:51.714Z,4.97
2018-07-26T16:28:20.685Z,6.05
2018-07-26T16:30:51.108Z,5.00
2018-07-26T16:33:22.735Z,4.95
2018-07-26T16:35:53.912Z,6.22
2018-07-26T16:38:23.267Z,4.50
2018-07-26T16:40:52.715Z,4.75
2018-07-26T16:43:22.131Z,5.47
2018-07-26T16:45:51.257Z,4.65
2018-07-26T16:48:20.694Z,5.12
2018-07-26T16:50:49.282Z,6.35
2018-07-26T16:53:17.943Z,5.95
2018-07-26T16:55:46.623Z,7.10
2018-07-26T16:58:15.269Z,4.05
2018-07-26T17:00:43.897Z,5.40
2018-07-26T17:03:12.633Z,4.72
2018-07-26T17:05:41.294Z,4.85
2018-07-26T17:08:13.684Z,4.28
2018-07-26T17:10:43.521Z,7.22
2018-07-26T17:13:15.891Z,4.92
2018-07-26T17:15:44.780Z,6.08
2018-07-26T17:18:13.571Z,6.15
2018-07-26T17:20:44.952Z,4.95
2018-07-26T17:23:14.651Z,5.92
2018-07-26T17:25:43.311Z,5.65
2018-07-26T17:28:12.005Z,9.23
2018-07-26T17:30:40.364Z,5.92
2018-07-26T17:33:09.188Z,4.87
2018-07-26T17:35:38.051Z,9.80
2018-07-26T17:38:07.725Z,5.08
2018-07-26T17:40:36.572Z,7.53
2018-07-26T17:43:05.156Z,5.92
2018-07-26T17:45:33.499Z,7.95
2018-07-26T17:48:02.138Z,4.50
2018-07-26T17:50:31.904Z,6.28
2018-07-26T17:53:02.825Z,6.15
2018-07-26T17:55:32.477Z,5.17
2018-07-26T17:58:00.807Z,5.42
2018-07-26T18:00:30.860Z,4.50
2018-07-26T18:02:59.150Z,5.42
2018-07-26T18:05:27.397Z,9.05
2018-07-26T18:07:55.993Z,5.50
2018-07-26T18:10:24.998Z,7.17
2018-07-26T18:12:53.335Z,6.12
2018-07-26T18:15:23.328Z,5.30
2018-07-26T18:17:52.922Z,5.22
2018-07-26T18:20:22.606Z,5.20
2018-07-26T18:22:51.852Z,7.12
2018-07-26T18:25:21.505Z,5.25
2018-07-26T18:27:49.793Z,5.55
2018-07-26T18:30:18.896Z,5.22
2018-07-26T18:32:47.400Z,6.47
2018-07-26T18:35:15.950Z,4.47
2018-07-26T18:37:44.236Z,7.28
2018-07-26T18:40:12.515Z,6.62
2018-07-26T18:42:41.028Z,6.45
2018-07-26T18:45:12.278Z,4.70
2018-07-26T18:47:41.113Z,5.83
2018-07-26T18:50:10.872Z,4.70
2018-07-26T18:52:39.571Z,5.60
2018-07-26T18:55:09.582Z,5.00
2018-07-26T18:57:38.616Z,7.33
2018-07-26T19:00:09.537Z,6.28
2018-07-26T19:02:38.140Z,8.05
2018-07-26T19:05:07.231Z,5.62
2018-07-26T19:07:36.450Z,5.85
2018-07-26T19:10:06.874Z,9.28
2018-07-26T19:12:35.689Z,13.32
2018-07-26T19:15:05.182Z,15.23
2018-07-26T19:17:33.728Z,9.00
2018-07-26T19:20:02.265Z,7.65
2018-07-26T19:22:30.813Z,9.43
2018-07-26T19:24:59.431Z,11.20
2018-07-26T19:27:28.057Z,12.50
2018-07-26T19:29:56.371Z,10.07
2018-07-26T19:32:26.295Z,12.90
2018-07-26T19:34:58.411Z,8.35
2018-07-26T19:37:26.929Z,30.00
2018-07-26T19:39:55.610Z,12.10
2018-07-26T19:42:24.167Z,9.85
2018-07-26T19:44:53.356Z,9.83
2018-07-26T19:47:23.018Z,11.00
2018-07-26T19:49:52.400Z,6.87
2018-07-26T19:52:21.608Z,10.30
2018-07-26T19:54:50.863Z,6.80
2018-07-26T19:57:19.466Z,9.17
2018-07-26T19:59:47.707Z,10.63
2018-07-26T20:02:16.279Z,7.53
2018-07-26T20:04:44.848Z,10.60
2018-07-26T20:07:13.424Z,11.33
2018-07-26T20:09:41.999Z,14.83
2018-07-26T20:12:10.603Z,12.73
2018-07-26T20:14:39.311Z,10.73
2018-07-26T20:17:09.015Z,11.03
2018-07-26T20:19:37.561Z,11.43
2018-07-26T20:22:06.433Z,8.97
2018-07-26T20:24:35.211Z,11.00
2018-07-26T20:27:03.608Z,9.37
2018-07-26T20:29:31.962Z,7.53
2018-07-26T20:32:00.609Z,6.37
2018-07-26T20:34:30.272Z,9.03
2018-07-26T20:36:58.846Z,8.87
2018-07-26T20:39:27.189Z,11.50
2018-07-26T20:41:55.820Z,8.90
2018-07-26T20:44:24.497Z,9.90
2018-07-26T20:46:53.058Z,8.07
2018-07-26T20:49:22.584Z,9.37
2018-07-26T20:51:51.791Z,7.70
2018-07-26T20:54:20.775Z,11.67
2018-07-26T20:56:57.727Z,7.27
2018-07-26T20:59:26.256Z,9.10
2018-07-26T21:01:54.860Z,8.03
2018-07-26T21:04:23.394Z,8.23
2018-07-26T21:06:52.974Z,9.43
2018-07-26T21:09:22.560Z,7.23
2018-07-26T21:11:52.204Z,8.10
2018-07-26T21:14:21.883Z,8.53
2018-07-26T21:16:51.111Z,12.07
2018-07-26T21:19:19.740Z,8.40
2018-07-26T21:21:48.611Z,6.97
2018-07-26T21:24:17.126Z,9.07
2018-07-26T21:26:45.639Z,8.13
2018-07-26T21:29:14.192Z,7.93
2018-07-26T21:31:42.747Z,7.27
2018-07-26T21:34:10.964Z,7.43
2018-07-26T21:36:39.497Z,7.97
2018-07-26T21:39:09.567Z,8.50
2018-07-26T21:41:38.070Z,9.13
2018-07-26T21:44:06.678Z,7.40
2018-07-26T21:46:34.899Z,10.93
2018-07-26T21:49:03.422Z,9.17
2018-07-26T21:51:31.713Z,6.97
2018-07-26T21:53:59.993Z,7.70
2018-07-26T21:56:28.498Z,7.50
2018-07-26T21:58:57.042Z,8.60
2018-07-26T22:01:25.264Z,6.47
2018-07-26T22:03:53.767Z,7.53
2018-07-26T22:06:23.240Z,6.30
2018-07-26T22:08:51.784Z,7.10
2018-07-26T22:11:20.029Z,5.40
2018-07-26T22:13:49.424Z,7.57
2018-07-26T22:16:17.953Z,6.63
2018-07-26T22:18:46.155Z,7.70
2018-07-26T22:21:14.700Z,7.03
2018-07-26T22:23:42.950Z,7.60
2018-07-26T22:26:11.532Z,10.20
2018-07-26T22:28:40.057Z,7.20
2018-07-26T22:31:08.615Z,6.70
2018-07-26T22:33:37.118Z,5.67
2018-07-26T22:36:05.660Z,5.33
2018-07-26T22:38:34.198Z,6.50
2018-07-26T22:41:02.734Z,7.37
2018-07-26T22:43:31.279Z,6.27
2018-07-26T22:45:59.822Z,5.63
2018-07-26T22:48:28.338Z,7.17
2018-07-26T22:50:56.892Z,6.63
2018-07-26T22:53:25.425Z,5.40
2018-07-26T22:55:53.833Z,7.43
2018-07-26T22:58:23.478Z,6.50
2018-07-26T23:00:53.048Z,6.13
2018-07-26T23:03:22.580Z,10.30
2018-07-26T23:05:51.780Z,5.67
2018-07-26T23:08:20.933Z,5.63
2018-07-26T23:10:49.514Z,7.07
2018-07-26T23:13:18.048Z,5.77
2018-07-26T23:15:46.580Z,5.50
2018-07-26T23:18:15.111Z,6.53
2018-07-26T23:20:43.645Z,5.77
2018-07-26T23:23:12.161Z,6.23
2018-07-26T23:25:40.430Z,5.27
2018-07-26T23:28:08.646Z,6.23
2018-07-26T23:30:37.143Z,7.80
2018-07-26T23:33:05.675Z,6.53
2018-07-26T23:35:34.187Z,5.03
2018-07-26T23:38:02.737Z,6.83
2018-07-26T23:40:30.967Z,5.00
2018-07-26T23:42:59.504Z,7.73
2018-07-26T23:45:27.979Z,5.80
2018-07-26T23:47:56.491Z,6.77
2018-07-26T23:50:24.999Z,5.73
2018-07-26T23:52:53.585Z,5.17
2018-07-26T23:55:22.762Z,4.97
2018-07-26T23:57:51.843Z,4.83
